sensor_id;sensor_type;location;lat;lon;timestamp;temperature;humidity
19232;DHT22;9750;48.730;10.294;2022-08-20T00:00:54;18.40;99.90
19232;DHT22;9750;48.730;10.294;2022-08-20T00:03:23;18.30;99.90
19232;DHT22;9750;48.730;10.294;2022-08-20T00:05:56;18.30;99.90
19232;DHT22;9750;48.730;10.294;2022-08-20T00:08:24;18.40;99.90
19232;DHT22;9750;48.730;10.294;2022-08-20T00:10:53;18.40;99.90
19232;DHT22;9750;48.730;10.294;2022-08-20T00:13:24;18.30;99.90
19232;DHT22;9750;48.730;10.294;2022-08-20T00:15:51;18.30;99.90
19232;DHT22;9750;48.730;10.294;2022-08-20T00:18:19;18.30;99.90
19232;DHT22;9750;48.730;10.294;2022-08-20T00:20:49;18.30;99.90
19232;DHT22;9750;48.730;10.294;2022-08-20T00:23:17;18.20;99.90
19232;DHT22;9750;48.730;10.294;2022-08-20T00:25:46;18.20;99.90
19232;DHT22;9750;48.730;10.294;2022-08-20T00:28:16;18.20;99.90
19232;DHT22;9750;48.730;10.294;2022-08-20T00:30:44;18.20;99.90
19232;DHT22;9750;48.730;10.294;2022-08-20T00:33:17;18.20;99.90
19232;DHT22;9750;48.730;10.294;2022-08-20T00:35:47;18.20;99.90
19232;DHT22;9750;48.730;10.294;2022-08-20T00:38:15;18.20;99.90
19232;DHT22;9750;48.730;10.294;2022-08-20T00:40:45;18.20;99.90
19232;DHT22;9750;48.730;10.294;2022-08-20T00:43:30;18.20;99.90
19232;DHT22;9750;48.730;10.294;2022-08-20T00:45:59;18.20;99.90
19232;DHT22;9750;48.730;10.294;2022-08-20T00:48:29;18.20;99.90
19232;DHT22;9750;48.730;10.294;2022-08-20T00:51:02;18.20;99.90
19232;DHT22;9750;48.730;10.294;2022-08-20T00:53:31;18.20;99.90
19232;DHT22;9750;48.730;10.294;2022-08-20T00:55:59;18.10;99.90
19232;DHT22;9750;48.730;10.294;2022-08-20T00:58:28;18.10;99.90
19232;DHT22;9750;48.730;10.294;2022-08-20T01:00:56;18.10;99.90
19232;DHT22;9750;48.730;10.294;2022-08-20T01:03:24;18.10;99.90
19232;DHT22;9750;48.730;10.294;2022-08-20T01:05:51;18.10;99.90
19232;DHT22;9750;48.730;10.294;2022-08-20T01:08:20;18.10;99.90
19232;DHT22;9750;48.730;10.294;2022-08-20T01:10:50;18.10;99.90
19232;DHT22;9750;48.730;10.294;2022-08-20T01:13:21;18.10;99.90
19232;DHT22;9750;48.730;10.294;2022-08-20T01:15:52;18.10;99.90
19232;DHT22;9750;48.730;10.294;2022-08-20T01:18:24;18.10;99.90
19232;DHT22;9750;48.730;10.294;2022-08-20T01:20:55;18.10;99.90
19232;DHT22;9750;48.730;10.294;2022-08-20T01:23:30;18.10;99.90
19232;DHT22;9750;48.730;10.294;2022-08-20T01:26:04;18.10;99.90
19232;DHT22;9750;48.730;10.294;2022-08-20T01:28:37;18.00;99.90
19232;DHT22;9750;48.730;10.294;2022-08-20T01:31:06;18.10;99.90
19232;DHT22;9750;48.730;10.294;2022-08-20T01:33:34;18.00;99.90
19232;DHT22;9750;48.730;10.294;2022-08-20T01:36:03;18.00;99.90
19232;DHT22;9750;48.730;10.294;2022-08-20T01:38:31;18.00;99.90
19232;DHT22;9750;48.730;10.294;2022-08-20T01:41:33;18.00;99.90
19232;DHT22;9750;48.730;10.294;2022-08-20T01:44:03;18.00;99.90
19232;DHT22;9750;48.730;10.294;2022-08-20T01:46:35;18.00;99.90
19232;DHT22;9750;48.730;10.294;2022-08-20T01:49:07;17.90;99.90
19232;DHT22;9750;48.730;10.294;2022-08-20T01:51:35;17.90;99.90
19232;DHT22;9750;48.730;10.294;2022-08-20T01:54:03;17.90;99.90
19232;DHT22;9750;48.730;10.294;2022-08-20T01:56:33;17.90;99.90
19232;DHT22;9750;48.730;10.294;2022-08-20T01:59:03;17.90;99.90
19232;DHT22;9750;48.730;10.294;2022-08-20T02:01:34;17.90;99.90
19232;DHT22;9750;48.730;10.294;2022-08-20T02:04:05;17.90;99.90
19232;DHT22;9750;48.730;10.294;2022-08-20T02:06:38;17.90;99.90
19232;DHT22;9750;48.730;10.294;2022-08-20T02:09:07;17.90;99.90
19232;DHT22;9750;48.730;10.294;2022-08-20T02:11:38;17.90;99.90
19232;DHT22;9750;48.730;10.294;2022-08-20T02:14:07;17.90;99.90
19232;DHT22;9750;48.730;10.294;2022-08-20T02:16:38;17.90;99.90
19232;DHT22;9750;48.730;10.294;2022-08-20T02:19:08;17.90;99.90
19232;DHT22;9750;48.730;10.294;2022-08-20T02:21:40;17.90;99.90
19232;DHT22;9750;48.730;10.294;2022-08-20T02:24:09;17.80;99.90
19232;DHT22;9750;48.730;10.294;2022-08-20T02:26:39;17.90;99.90
19232;DHT22;9750;48.730;10.294;2022-08-20T02:29:08;17.90;99.90
19232;DHT22;9750;48.730;10.294;2022-08-20T02:31:37;17.80;99.90
19232;DHT22;9750;48.730;10.294;2022-08-20T02:34:07;17.80;99.90
19232;DHT22;9750;48.730;10.294;2022-08-20T02:36:36;17.80;99.90
19232;DHT22;9750;48.730;10.294;2022-08-20T02:39:05;17.80;99.90
19232;DHT22;9750;48.730;10.294;2022-08-20T02:41:33;17.70;99.90
19232;DHT22;9750;48.730;10.294;2022-08-20T02:44:02;17.70;99.90
19232;DHT22;9750;48.730;10.294;2022-08-20T02:46:30;17.70;99.90
19232;DHT22;9750;48.730;10.294;2022-08-20T02:48:58;17.70;99.90
19232;DHT22;9750;48.730;10.294;2022-08-20T02:51:25;17.70;99.90
19232;DHT22;9750;48.730;10.294;2022-08-20T02:53:53;17.70;99.90
19232;DHT22;9750;48.730;10.294;2022-08-20T02:56:20;17.70;99.90
19232;DHT22;9750;48.730;10.294;2022-08-20T02:58:47;17.70;99.90
19232;DHT22;9750;48.730;10.294;2022-08-20T03:01:17;17.70;99.90
19232;DHT22;9750;48.730;10.294;2022-08-20T03:03:45;17.70;99.90
19232;DHT22;9750;48.730;10.294;2022-08-20T03:06:12;17.60;99.90
19232;DHT22;9750;48.730;10.294;2022-08-20T03:08:41;17.60;99.90
19232;DHT22;9750;48.730;10.294;2022-08-20T03:11:08;17.60;99.90
19232;DHT22;9750;48.730;10.294;2022-08-20T03:13:36;17.60;99.90
19232;DHT22;9750;48.730;10.294;2022-08-20T03:16:05;17.60;99.90
19232;DHT22;9750;48.730;10.294;2022-08-20T03:18:39;17.50;99.90
19232;DHT22;9750;48.730;10.294;2022-08-20T03:21:07;17.50;99.90
19232;DHT22;9750;48.730;10.294;2022-08-20T03:23:36;17.50;99.90
19232;DHT22;9750;48.730;10.294;2022-08-20T03:26:06;17.50;99.90
19232;DHT22;9750;48.730;10.294;2022-08-20T03:28:34;17.50;99.90
19232;DHT22;9750;48.730;10.294;2022-08-20T03:31:02;17.50;99.90
19232;DHT22;9750;48.730;10.294;2022-08-20T03:33:30;17.50;99.90
19232;DHT22;9750;48.730;10.294;2022-08-20T03:35:59;17.50;99.90
19232;DHT22;9750;48.730;10.294;2022-08-20T03:38:26;17.40;99.90
19232;DHT22;9750;48.730;10.294;2022-08-20T03:40:54;17.40;99.90
19232;DHT22;9750;48.730;10.294;2022-08-20T03:43:22;17.40;99.90
19232;DHT22;9750;48.730;10.294;2022-08-20T03:45:49;17.40;99.90
19232;DHT22;9750;48.730;10.294;2022-08-20T03:48:18;17.40;99.90
19232;DHT22;9750;48.730;10.294;2022-08-20T03:50:47;17.40;99.90
19232;DHT22;9750;48.730;10.294;2022-08-20T03:53:17;17.40;99.90
19232;DHT22;9750;48.730;10.294;2022-08-20T03:55:46;17.40;99.90
19232;DHT22;9750;48.730;10.294;2022-08-20T03:58:14;17.40;99.90
19232;DHT22;9750;48.730;10.294;2022-08-20T04:00:50;17.30;99.90
19232;DHT22;9750;48.730;10.294;2022-08-20T04:03:17;17.30;99.90
19232;DHT22;9750;48.730;10.294;2022-08-20T04:05:45;17.30;99.90
19232;DHT22;9750;48.730;10.294;2022-08-20T04:08:17;17.20;99.90
19232;DHT22;9750;48.730;10.294;2022-08-20T04:10:45;17.20;99.90
19232;DHT22;9750;48.730;10.294;2022-08-20T04:13:15;17.20;99.90
19232;DHT22;9750;48.730;10.294;2022-08-20T04:15:43;17.20;99.90
19232;DHT22;9750;48.730;10.294;2022-08-20T04:18:12;17.30;99.90
19232;DHT22;9750;48.730;10.294;2022-08-20T04:20:41;17.30;99.90
19232;DHT22;9750;48.730;10.294;2022-08-20T04:23:09;17.30;99.90
19232;DHT22;9750;48.730;10.294;2022-08-20T04:25:41;17.30;99.90
19232;DHT22;9750;48.730;10.294;2022-08-20T04:28:11;17.30;99.90
19232;DHT22;9750;48.730;10.294;2022-08-20T04:30:40;17.30;99.90
19232;DHT22;9750;48.730;10.294;2022-08-20T04:33:09;17.30;99.90
19232;DHT22;9750;48.730;10.294;2022-08-20T04:35:36;17.30;99.90
19232;DHT22;9750;48.730;10.294;2022-08-20T04:38:06;17.30;99.90
19232;DHT22;9750;48.730;10.294;2022-08-20T04:40:34;17.30;99.90
19232;DHT22;9750;48.730;10.294;2022-08-20T04:43:26;17.30;99.90
19232;DHT22;9750;48.730;10.294;2022-08-20T04:45:55;17.30;99.90
19232;DHT22;9750;48.730;10.294;2022-08-20T04:48:24;17.30;99.90
19232;DHT22;9750;48.730;10.294;2022-08-20T04:50:54;17.30;99.90
19232;DHT22;9750;48.730;10.294;2022-08-20T04:53:24;17.30;99.90
19232;DHT22;9750;48.730;10.294;2022-08-20T04:55:53;17.40;99.90
19232;DHT22;9750;48.730;10.294;2022-08-20T04:58:25;17.30;99.90
19232;DHT22;9750;48.730;10.294;2022-08-20T05:00:54;17.30;99.90
19232;DHT22;9750;48.730;10.294;2022-08-20T05:03:22;17.30;99.90
19232;DHT22;9750;48.730;10.294;2022-08-20T05:05:50;17.30;99.90
19232;DHT22;9750;48.730;10.294;2022-08-20T05:08:19;17.30;99.90
19232;DHT22;9750;48.730;10.294;2022-08-20T05:10:48;17.30;99.90
19232;DHT22;9750;48.730;10.294;2022-08-20T05:13:16;17.30;99.90
19232;DHT22;9750;48.730;10.294;2022-08-20T05:15:45;17.40;99.90
19232;DHT22;9750;48.730;10.294;2022-08-20T05:18:16;17.40;99.90
19232;DHT22;9750;48.730;10.294;2022-08-20T05:20:44;17.40;99.90
19232;DHT22;9750;48.730;10.294;2022-08-20T05:23:13;17.40;99.90
19232;DHT22;9750;48.730;10.294;2022-08-20T05:25:42;17.50;99.90
19232;DHT22;9750;48.730;10.294;2022-08-20T05:28:15;17.50;99.90
19232;DHT22;9750;48.730;10.294;2022-08-20T05:30:46;17.50;99.90
19232;DHT22;9750;48.730;10.294;2022-08-20T05:33:31;17.60;99.90
19232;DHT22;9750;48.730;10.294;2022-08-20T05:35:58;17.60;99.90
19232;DHT22;9750;48.730;10.294;2022-08-20T05:38:27;17.60;99.90
19232;DHT22;9750;48.730;10.294;2022-08-20T05:40:55;17.60;99.90
19232;DHT22;9750;48.730;10.294;2022-08-20T05:43:23;17.70;99.90
19232;DHT22;9750;48.730;10.294;2022-08-20T05:45:51;17.70;99.90
19232;DHT22;9750;48.730;10.294;2022-08-20T05:48:22;17.80;99.90
19232;DHT22;9750;48.730;10.294;2022-08-20T05:50:51;17.80;99.90
19232;DHT22;9750;48.730;10.294;2022-08-20T05:53:22;17.80;99.90
19232;DHT22;9750;48.730;10.294;2022-08-20T05:55:49;17.90;99.90
19232;DHT22;9750;48.730;10.294;2022-08-20T05:58:19;18.00;99.90
19232;DHT22;9750;48.730;10.294;2022-08-20T06:00:47;18.00;99.90
19232;DHT22;9750;48.730;10.294;2022-08-20T06:03:16;18.10;99.90
19232;DHT22;9750;48.730;10.294;2022-08-20T06:06:01;18.10;99.90
19232;DHT22;9750;48.730;10.294;2022-08-20T06:08:29;18.20;99.90
19232;DHT22;9750;48.730;10.294;2022-08-20T06:10:56;18.20;99.90
19232;DHT22;9750;48.730;10.294;2022-08-20T06:13:24;18.20;99.90
19232;DHT22;9750;48.730;10.294;2022-08-20T06:15:51;18.30;99.90
19232;DHT22;9750;48.730;10.294;2022-08-20T06:18:20;18.30;99.90
19232;DHT22;9750;48.730;10.294;2022-08-20T06:20:47;18.40;99.90
19232;DHT22;9750;48.730;10.294;2022-08-20T06:23:16;18.40;99.90
19232;DHT22;9750;48.730;10.294;2022-08-20T06:25:44;18.50;99.90
19232;DHT22;9750;48.730;10.294;2022-08-20T06:28:15;18.50;99.90
19232;DHT22;9750;48.730;10.294;2022-08-20T06:30:42;18.50;99.90
19232;DHT22;9750;48.730;10.294;2022-08-20T06:33:10;18.60;99.90
19232;DHT22;9750;48.730;10.294;2022-08-20T06:35:38;18.60;99.90
19232;DHT22;9750;48.730;10.294;2022-08-20T06:38:08;18.70;99.90
19232;DHT22;9750;48.730;10.294;2022-08-20T06:40:37;18.80;99.90
19232;DHT22;9750;48.730;10.294;2022-08-20T06:46:40;18.80;99.90
19232;DHT22;9750;48.730;10.294;2022-08-20T06:49:08;18.80;99.90
19232;DHT22;9750;48.730;10.294;2022-08-20T06:51:37;18.80;99.90
19232;DHT22;9750;48.730;10.294;2022-08-20T06:54:05;18.90;99.90
19232;DHT22;9750;48.730;10.294;2022-08-20T06:56:33;19.00;99.90
19232;DHT22;9750;48.730;10.294;2022-08-20T06:59:00;19.00;99.90
19232;DHT22;9750;48.730;10.294;2022-08-20T07:01:28;19.00;99.90
19232;DHT22;9750;48.730;10.294;2022-08-20T07:03:55;19.10;99.90
19232;DHT22;9750;48.730;10.294;2022-08-20T07:06:25;19.10;99.90
19232;DHT22;9750;48.730;10.294;2022-08-20T07:08:54;19.20;99.90
19232;DHT22;9750;48.730;10.294;2022-08-20T07:11:22;19.20;99.90
19232;DHT22;9750;48.730;10.294;2022-08-20T07:13:49;19.30;99.90
19232;DHT22;9750;48.730;10.294;2022-08-20T07:16:16;19.30;99.90
19232;DHT22;9750;48.730;10.294;2022-08-20T07:18:44;19.30;99.90
19232;DHT22;9750;48.730;10.294;2022-08-20T07:21:11;19.30;99.90
19232;DHT22;9750;48.730;10.294;2022-08-20T07:23:38;19.40;99.90
19232;DHT22;9750;48.730;10.294;2022-08-20T07:26:08;19.40;99.90
19232;DHT22;9750;48.730;10.294;2022-08-20T07:28:35;19.50;99.90
19232;DHT22;9750;48.730;10.294;2022-08-20T07:31:03;19.50;99.90
19232;DHT22;9750;48.730;10.294;2022-08-20T07:33:47;19.60;99.90
19232;DHT22;9750;48.730;10.294;2022-08-20T07:36:14;19.60;99.90
19232;DHT22;9750;48.730;10.294;2022-08-20T07:38:42;19.70;99.90
19232;DHT22;9750;48.730;10.294;2022-08-20T07:41:12;19.70;99.90
19232;DHT22;9750;48.730;10.294;2022-08-20T07:43:40;19.70;99.90
19232;DHT22;9750;48.730;10.294;2022-08-20T07:46:10;19.70;99.90
19232;DHT22;9750;48.730;10.294;2022-08-20T07:48:39;19.80;99.90
19232;DHT22;9750;48.730;10.294;2022-08-20T07:51:11;19.80;99.90
19232;DHT22;9750;48.730;10.294;2022-08-20T07:53:40;20.00;99.90
19232;DHT22;9750;48.730;10.294;2022-08-20T07:56:09;20.00;99.90
19232;DHT22;9750;48.730;10.294;2022-08-20T07:58:42;20.10;99.90
19232;DHT22;9750;48.730;10.294;2022-08-20T08:01:12;20.10;99.90
19232;DHT22;9750;48.730;10.294;2022-08-20T08:03:39;20.10;99.90
19232;DHT22;9750;48.730;10.294;2022-08-20T08:06:07;20.10;99.90
19232;DHT22;9750;48.730;10.294;2022-08-20T08:08:35;20.10;99.90
19232;DHT22;9750;48.730;10.294;2022-08-20T08:11:03;20.10;99.90
19232;DHT22;9750;48.730;10.294;2022-08-20T08:13:34;20.10;99.90
19232;DHT22;9750;48.730;10.294;2022-08-20T08:16:04;20.20;99.90
19232;DHT22;9750;48.730;10.294;2022-08-20T08:18:35;20.30;99.90
19232;DHT22;9750;48.730;10.294;2022-08-20T08:21:05;20.30;99.90
19232;DHT22;9750;48.730;10.294;2022-08-20T08:23:33;20.30;99.90
19232;DHT22;9750;48.730;10.294;2022-08-20T08:26:00;20.30;99.90
19232;DHT22;9750;48.730;10.294;2022-08-20T08:28:28;20.30;99.90
19232;DHT22;9750;48.730;10.294;2022-08-20T08:30:55;20.30;99.90
19232;DHT22;9750;48.730;10.294;2022-08-20T08:33:26;20.30;99.90
19232;DHT22;9750;48.730;10.294;2022-08-20T08:35:54;20.40;99.90
19232;DHT22;9750;48.730;10.294;2022-08-20T08:38:22;20.40;99.90
19232;DHT22;9750;48.730;10.294;2022-08-20T08:40:51;20.30;99.90
19232;DHT22;9750;48.730;10.294;2022-08-20T08:43:22;20.40;99.90
19232;DHT22;9750;48.730;10.294;2022-08-20T08:45:57;20.40;99.90
19232;DHT22;9750;48.730;10.294;2022-08-20T08:48:31;20.40;99.90
19232;DHT22;9750;48.730;10.294;2022-08-20T08:51:02;20.40;99.90
19232;DHT22;9750;48.730;10.294;2022-08-20T08:53:41;20.40;99.90
19232;DHT22;9750;48.730;10.294;2022-08-20T08:56:11;20.30;99.90
19232;DHT22;9750;48.730;10.294;2022-08-20T08:58:40;20.30;99.90
19232;DHT22;9750;48.730;10.294;2022-08-20T09:01:11;20.20;99.90
19232;DHT22;9750;48.730;10.294;2022-08-20T09:03:44;20.10;99.90
19232;DHT22;9750;48.730;10.294;2022-08-20T09:06:14;20.20;99.90
19232;DHT22;9750;48.730;10.294;2022-08-20T09:08:45;20.20;99.90
19232;DHT22;9750;48.730;10.294;2022-08-20T09:11:16;20.20;99.90
19232;DHT22;9750;48.730;10.294;2022-08-20T09:13:44;20.10;99.90
19232;DHT22;9750;48.730;10.294;2022-08-20T09:16:12;20.10;99.90
19232;DHT22;9750;48.730;10.294;2022-08-20T09:18:41;20.20;99.90
19232;DHT22;9750;48.730;10.294;2022-08-20T09:21:09;20.30;99.90
19232;DHT22;9750;48.730;10.294;2022-08-20T09:23:36;20.40;99.90
19232;DHT22;9750;48.730;10.294;2022-08-20T09:26:04;20.40;99.90
19232;DHT22;9750;48.730;10.294;2022-08-20T09:28:32;20.50;99.90
19232;DHT22;9750;48.730;10.294;2022-08-20T09:31:00;20.50;99.90
19232;DHT22;9750;48.730;10.294;2022-08-20T09:33:27;20.60;99.90
19232;DHT22;9750;48.730;10.294;2022-08-20T09:35:56;20.60;99.90
19232;DHT22;9750;48.730;10.294;2022-08-20T09:38:23;20.70;99.90
19232;DHT22;9750;48.730;10.294;2022-08-20T09:40:51;20.80;99.90
19232;DHT22;9750;48.730;10.294;2022-08-20T09:43:18;20.70;99.90
19232;DHT22;9750;48.730;10.294;2022-08-20T09:45:46;20.70;99.90
19232;DHT22;9750;48.730;10.294;2022-08-20T09:48:13;20.70;99.90
19232;DHT22;9750;48.730;10.294;2022-08-20T09:50:44;20.80;99.90
19232;DHT22;9750;48.730;10.294;2022-08-20T09:53:14;20.80;99.90
19232;DHT22;9750;48.730;10.294;2022-08-20T09:55:44;21.00;99.90
19232;DHT22;9750;48.730;10.294;2022-08-20T09:58:17;21.10;99.90
19232;DHT22;9750;48.730;10.294;2022-08-20T10:00:45;21.20;99.90
19232;DHT22;9750;48.730;10.294;2022-08-20T10:06:38;21.50;99.90
19232;DHT22;9750;48.730;10.294;2022-08-20T10:09:07;21.50;99.90
19232;DHT22;9750;48.730;10.294;2022-08-20T10:11:34;21.70;99.90
19232;DHT22;9750;48.730;10.294;2022-08-20T10:14:01;21.80;99.90
19232;DHT22;9750;48.730;10.294;2022-08-20T10:16:29;21.90;99.90
19232;DHT22;9750;48.730;10.294;2022-08-20T10:18:57;21.90;99.90
19232;DHT22;9750;48.730;10.294;2022-08-20T10:21:24;22.00;99.90
19232;DHT22;9750;48.730;10.294;2022-08-20T10:23:52;21.90;99.90
19232;DHT22;9750;48.730;10.294;2022-08-20T10:26:20;21.80;99.90
19232;DHT22;9750;48.730;10.294;2022-08-20T10:28:48;21.70;99.90
19232;DHT22;9750;48.730;10.294;2022-08-20T10:31:15;21.70;99.90
19232;DHT22;9750;48.730;10.294;2022-08-20T10:33:43;21.70;99.90
19232;DHT22;9750;48.730;10.294;2022-08-20T10:36:14;21.70;99.90
19232;DHT22;9750;48.730;10.294;2022-08-20T10:38:42;21.70;99.90
19232;DHT22;9750;48.730;10.294;2022-08-20T10:41:10;21.80;99.90
19232;DHT22;9750;48.730;10.294;2022-08-20T10:43:39;21.80;99.90
19232;DHT22;9750;48.730;10.294;2022-08-20T10:46:06;22.10;99.90
19232;DHT22;9750;48.730;10.294;2022-08-20T10:48:33;22.20;99.90
19232;DHT22;9750;48.730;10.294;2022-08-20T10:51:01;22.30;99.90
19232;DHT22;9750;48.730;10.294;2022-08-20T10:53:28;22.30;99.40
19232;DHT22;9750;48.730;10.294;2022-08-20T10:55:56;22.40;99.20
19232;DHT22;9750;48.730;10.294;2022-08-20T10:58:24;22.30;99.00
19232;DHT22;9750;48.730;10.294;2022-08-20T11:00:53;22.20;99.30
19232;DHT22;9750;48.730;10.294;2022-08-20T11:03:20;22.20;99.20
19232;DHT22;9750;48.730;10.294;2022-08-20T11:05:48;22.20;98.90
19232;DHT22;9750;48.730;10.294;2022-08-20T11:08:15;22.40;98.80
19232;DHT22;9750;48.730;10.294;2022-08-20T11:10:43;22.50;98.00
19232;DHT22;9750;48.730;10.294;2022-08-20T11:13:10;22.60;98.20
19232;DHT22;9750;48.730;10.294;2022-08-20T11:15:40;22.70;98.90
19232;DHT22;9750;48.730;10.294;2022-08-20T11:18:10;22.60;97.80
19232;DHT22;9750;48.730;10.294;2022-08-20T11:20:38;22.50;97.00
19232;DHT22;9750;48.730;10.294;2022-08-20T11:26:28;22.30;97.90
19232;DHT22;9750;48.730;10.294;2022-08-20T11:28:55;22.20;97.70
19232;DHT22;9750;48.730;10.294;2022-08-20T11:31:22;22.20;98.30
19232;DHT22;9750;48.730;10.294;2022-08-20T11:33:51;22.30;98.90
19232;DHT22;9750;48.730;10.294;2022-08-20T11:36:19;22.50;98.80
19232;DHT22;9750;48.730;10.294;2022-08-20T11:38:51;22.70;98.70
19232;DHT22;9750;48.730;10.294;2022-08-20T11:41:19;22.80;96.60
19232;DHT22;9750;48.730;10.294;2022-08-20T11:43:46;22.80;96.70
19232;DHT22;9750;48.730;10.294;2022-08-20T11:46:14;22.80;96.40
19232;DHT22;9750;48.730;10.294;2022-08-20T11:48:41;22.80;95.60
19232;DHT22;9750;48.730;10.294;2022-08-20T11:51:10;22.70;96.50
19232;DHT22;9750;48.730;10.294;2022-08-20T11:53:37;22.70;96.00
19232;DHT22;9750;48.730;10.294;2022-08-20T11:56:05;22.70;95.70
19232;DHT22;9750;48.730;10.294;2022-08-20T11:58:32;22.60;95.50
19232;DHT22;9750;48.730;10.294;2022-08-20T12:01:00;22.60;96.10
19232;DHT22;9750;48.730;10.294;2022-08-20T12:03:28;22.60;96.40
19232;DHT22;9750;48.730;10.294;2022-08-20T12:05:56;22.60;96.40
19232;DHT22;9750;48.730;10.294;2022-08-20T12:08:25;22.60;96.30
19232;DHT22;9750;48.730;10.294;2022-08-20T12:10:55;22.50;96.60
19232;DHT22;9750;48.730;10.294;2022-08-20T12:13:22;22.50;98.20
19232;DHT22;9750;48.730;10.294;2022-08-20T12:15:53;22.50;98.40
19232;DHT22;9750;48.730;10.294;2022-08-20T12:18:21;22.40;98.60
19232;DHT22;9750;48.730;10.294;2022-08-20T12:20:48;22.30;99.70
19232;DHT22;9750;48.730;10.294;2022-08-20T12:23:15;22.10;98.80
19232;DHT22;9750;48.730;10.294;2022-08-20T12:25:45;21.90;99.30
19232;DHT22;9750;48.730;10.294;2022-08-20T12:28:13;21.50;98.30
19232;DHT22;9750;48.730;10.294;2022-08-20T12:30:41;21.30;97.90
19232;DHT22;9750;48.730;10.294;2022-08-20T12:33:08;21.10;98.40
19232;DHT22;9750;48.730;10.294;2022-08-20T12:35:36;20.90;98.60
19232;DHT22;9750;48.730;10.294;2022-08-20T12:38:03;20.80;98.50
19232;DHT22;9750;48.730;10.294;2022-08-20T12:40:32;20.60;99.70
19232;DHT22;9750;48.730;10.294;2022-08-20T12:43:01;20.70;99.90
19232;DHT22;9750;48.730;10.294;2022-08-20T12:45:29;20.80;99.90
19232;DHT22;9750;48.730;10.294;2022-08-20T12:48:01;20.90;99.90
19232;DHT22;9750;48.730;10.294;2022-08-20T12:50:29;21.00;99.90
19232;DHT22;9750;48.730;10.294;2022-08-20T12:56:18;21.10;98.60
19232;DHT22;9750;48.730;10.294;2022-08-20T12:58:47;21.20;98.50
19232;DHT22;9750;48.730;10.294;2022-08-20T13:01:15;21.30;98.50
19232;DHT22;9750;48.730;10.294;2022-08-20T13:03:42;21.50;98.70
19232;DHT22;9750;48.730;10.294;2022-08-20T13:06:09;21.50;98.90
19232;DHT22;9750;48.730;10.294;2022-08-20T13:08:37;21.50;99.40
19232;DHT22;9750;48.730;10.294;2022-08-20T13:11:04;21.70;99.60
19232;DHT22;9750;48.730;10.294;2022-08-20T13:13:32;21.70;99.90
19232;DHT22;9750;48.730;10.294;2022-08-20T13:16:00;21.60;99.90
19232;DHT22;9750;48.730;10.294;2022-08-20T13:18:29;21.70;99.90
19232;DHT22;9750;48.730;10.294;2022-08-20T13:20:56;21.70;99.90
19232;DHT22;9750;48.730;10.294;2022-08-20T13:23:23;21.80;99.90
19232;DHT22;9750;48.730;10.294;2022-08-20T13:25:51;21.70;99.90
19232;DHT22;9750;48.730;10.294;2022-08-20T13:28:18;21.70;99.90
19232;DHT22;9750;48.730;10.294;2022-08-20T13:30:46;21.60;99.90
19232;DHT22;9750;48.730;10.294;2022-08-20T13:33:15;21.60;99.90
19232;DHT22;9750;48.730;10.294;2022-08-20T13:35:42;21.50;99.90
19232;DHT22;9750;48.730;10.294;2022-08-20T13:38:10;21.50;99.90
19232;DHT22;9750;48.730;10.294;2022-08-20T13:40:37;21.50;99.90
19232;DHT22;9750;48.730;10.294;2022-08-20T13:43:05;21.40;99.90
19232;DHT22;9750;48.730;10.294;2022-08-20T13:45:32;21.30;99.90
19232;DHT22;9750;48.730;10.294;2022-08-20T13:48:00;21.30;99.90
19232;DHT22;9750;48.730;10.294;2022-08-20T13:50:29;21.20;99.90
19232;DHT22;9750;48.730;10.294;2022-08-20T13:52:56;21.10;99.90
19232;DHT22;9750;48.730;10.294;2022-08-20T13:55:25;21.00;99.90
19232;DHT22;9750;48.730;10.294;2022-08-20T13:57:54;21.00;99.90
19232;DHT22;9750;48.730;10.294;2022-08-20T14:00:25;20.90;99.90
19232;DHT22;9750;48.730;10.294;2022-08-20T14:02:53;20.80;99.90
19232;DHT22;9750;48.730;10.294;2022-08-20T14:05:20;20.60;99.90
19232;DHT22;9750;48.730;10.294;2022-08-20T14:07:49;20.50;99.90
19232;DHT22;9750;48.730;10.294;2022-08-20T14:10:18;20.40;99.90
19232;DHT22;9750;48.730;10.294;2022-08-20T14:12:47;20.30;99.90
19232;DHT22;9750;48.730;10.294;2022-08-20T14:15:14;20.20;99.90
19232;DHT22;9750;48.730;10.294;2022-08-20T14:17:47;20.10;99.90
19232;DHT22;9750;48.730;10.294;2022-08-20T14:20:16;20.10;99.90
19232;DHT22;9750;48.730;10.294;2022-08-20T14:22:44;20.00;99.90
19232;DHT22;9750;48.730;10.294;2022-08-20T14:25:15;20.00;99.90
19232;DHT22;9750;48.730;10.294;2022-08-20T14:27:43;19.90;99.90
19232;DHT22;9750;48.730;10.294;2022-08-20T14:30:15;19.90;99.90
19232;DHT22;9750;48.730;10.294;2022-08-20T14:32:42;19.90;99.90
19232;DHT22;9750;48.730;10.294;2022-08-20T14:35:10;19.90;99.90
19232;DHT22;9750;48.730;10.294;2022-08-20T14:37:40;19.90;99.90
19232;DHT22;9750;48.730;10.294;2022-08-20T14:40:10;19.80;99.90
19232;DHT22;9750;48.730;10.294;2022-08-20T14:42:40;19.70;99.90
19232;DHT22;9750;48.730;10.294;2022-08-20T14:45:09;19.70;99.90
19232;DHT22;9750;48.730;10.294;2022-08-20T14:47:39;19.60;99.90
19232;DHT22;9750;48.730;10.294;2022-08-20T14:50:11;19.60;99.90
19232;DHT22;9750;48.730;10.294;2022-08-20T14:52:38;19.50;99.90
19232;DHT22;9750;48.730;10.294;2022-08-20T14:55:09;19.50;99.90
19232;DHT22;9750;48.730;10.294;2022-08-20T14:57:37;19.50;99.90
19232;DHT22;9750;48.730;10.294;2022-08-20T15:00:09;19.40;99.90
19232;DHT22;9750;48.730;10.294;2022-08-20T15:02:37;19.40;99.90
19232;DHT22;9750;48.730;10.294;2022-08-20T15:05:06;19.40;99.90
19232;DHT22;9750;48.730;10.294;2022-08-20T15:07:37;19.40;99.90
19232;DHT22;9750;48.730;10.294;2022-08-20T15:10:06;19.40;99.90
19232;DHT22;9750;48.730;10.294;2022-08-20T15:12:34;19.40;99.90
19232;DHT22;9750;48.730;10.294;2022-08-20T15:15:03;19.40;99.90
19232;DHT22;9750;48.730;10.294;2022-08-20T15:17:33;19.50;99.90
19232;DHT22;9750;48.730;10.294;2022-08-20T15:20:01;19.50;99.90
19232;DHT22;9750;48.730;10.294;2022-08-20T15:22:33;19.50;99.90
19232;DHT22;9750;48.730;10.294;2022-08-20T15:25:00;19.50;99.90
19232;DHT22;9750;48.730;10.294;2022-08-20T15:27:28;19.50;99.90
19232;DHT22;9750;48.730;10.294;2022-08-20T15:29:55;19.60;99.90
19232;DHT22;9750;48.730;10.294;2022-08-20T15:32:22;19.60;99.90
19232;DHT22;9750;48.730;10.294;2022-08-20T15:34:51;19.60;99.90
19232;DHT22;9750;48.730;10.294;2022-08-20T15:37:21;19.60;99.90
19232;DHT22;9750;48.730;10.294;2022-08-20T15:39:50;19.70;99.90
19232;DHT22;9750;48.730;10.294;2022-08-20T15:42:18;19.80;99.90
19232;DHT22;9750;48.730;10.294;2022-08-20T15:44:46;19.90;99.90
19232;DHT22;9750;48.730;10.294;2022-08-20T15:47:22;19.90;99.90
19232;DHT22;9750;48.730;10.294;2022-08-20T15:49:54;19.80;99.90
19232;DHT22;9750;48.730;10.294;2022-08-20T15:52:23;19.90;99.90
19232;DHT22;9750;48.730;10.294;2022-08-20T15:54:53;19.90;99.90